createdAt,value
2023-06-17T00:01:32.211Z,79.97
2023-06-17T00:03:59.925Z,80.18
2023-06-17T00:06:28.893Z,80.01
2023-06-17T00:08:56.689Z,79.31
2023-06-17T00:11:24.499Z,79.16
2023-06-17T00:13:53.207Z,79.06
2023-06-17T00:16:22.126Z,79.45
2023-06-17T00:18:52.816Z,78.95
2023-06-17T00:21:20.517Z,79.44
2023-06-17T00:23:49.445Z,79.43
2023-06-17T00:26:17.024Z,79.42
2023-06-17T00:28:45.035Z,79.13
2023-06-17T00:31:12.985Z,78.94
2023-06-17T00:33:40.491Z,79.32
2023-06-17T00:36:08.746Z,79.62
2023-06-17T00:38:36.305Z,79.74
2023-06-17T00:41:05.361Z,79.91
2023-06-17T00:43:33.029Z,79.66
2023-06-17T00:46:00.780Z,78.95
2023-06-17T00:48:28.464Z,79.25
2023-06-17T00:51:02.715Z,79.46
2023-06-17T00:53:30.460Z,80.04
2023-06-17T00:55:59.180Z,80.20
2023-06-17T00:58:28.437Z,79.83
2023-06-17T01:00:56.367Z,80.04
2023-06-17T01:03:25.881Z,80.10
2023-06-17T01:05:57.337Z,80.10
2023-06-17T01:08:29.938Z,80.10
2023-06-17T01:11:01.013Z,80.34
2023-06-17T01:13:32.650Z,79.98
2023-06-17T01:16:02.000Z,79.46
2023-06-17T01:18:30.871Z,79.90
2023-06-17T01:21:00.050Z,79.96
2023-06-17T01:23:33.010Z,79.49
2023-06-17T01:26:02.626Z,79.86
2023-06-17T01:28:31.184Z,79.47
2023-06-17T01:30:59.792Z,79.37
2023-06-17T01:33:27.920Z,79.31
2023-06-17T01:36:00.963Z,79.44
2023-06-17T01:38:32.862Z,79.60
2023-06-17T01:41:06.047Z,78.98
2023-06-17T01:43:36.483Z,79.04
2023-06-17T01:46:05.232Z,78.41
2023-06-17T01:48:32.989Z,78.15
2023-06-17T01:51:00.564Z,78.16
2023-06-17T01:53:29.205Z,77.98
2023-06-17T01:55:56.784Z,78.41
2023-06-17T01:58:25.812Z,79.00
2023-06-17T02:00:53.676Z,79.11
2023-06-17T02:03:21.567Z,79.08
2023-06-17T02:05:51.163Z,79.33
2023-06-17T02:08:18.798Z,79.43
2023-06-17T02:10:46.583Z,79.94
2023-06-17T02:13:14.189Z,79.40
2023-06-17T02:15:43.986Z,79.16
2023-06-17T02:18:15.308Z,79.56
2023-06-17T02:20:45.655Z,79.50
2023-06-17T02:23:13.442Z,79.43
2023-06-17T02:25:41.231Z,80.56
2023-06-17T02:28:09.498Z,80.71
2023-06-17T02:30:37.186Z,80.18
2023-06-17T02:33:07.243Z,80.11
2023-06-17T02:35:34.893Z,79.65
2023-06-17T02:38:02.413Z,78.87
2023-06-17T02:40:30.650Z,78.71
2023-06-17T02:42:58.204Z,79.79
2023-06-17T02:45:25.752Z,78.78
2023-06-17T02:47:53.350Z,78.62
2023-06-17T02:50:24.474Z,79.40
2023-06-17T02:52:56.607Z,79.60
2023-06-17T02:55:26.482Z,80.03
2023-06-17T02:57:54.297Z,80.06
2023-06-17T03:00:22.786Z,79.88
2023-06-17T03:02:51.359Z,80.26
2023-06-17T03:05:19.085Z,80.51
2023-06-17T03:07:49.003Z,80.34
2023-06-17T03:10:19.346Z,80.31
2023-06-17T03:12:53.208Z,80.24
2023-06-17T03:15:20.860Z,80.11
2023-06-17T03:17:48.500Z,80.37
2023-06-17T03:20:16.377Z,80.37
2023-06-17T03:22:44.988Z,81.14
2023-06-17T03:25:15.157Z,81.08
2023-06-17T03:27:42.731Z,80.98
2023-06-17T03:30:11.218Z,80.82
2023-06-17T03:32:39.114Z,81.04
2023-06-17T03:35:07.848Z,80.85
2023-06-17T03:37:35.426Z,80.62
2023-06-17T03:40:03.786Z,80.32
2023-06-17T03:42:37.718Z,81.01
2023-06-17T03:45:06.219Z,80.67
2023-06-17T03:47:33.926Z,80.86
2023-06-17T03:50:01.588Z,80.96
2023-06-17T03:52:30.675Z,80.89
2023-06-17T03:54:58.288Z,80.76
2023-06-17T03:57:26.829Z,80.77
2023-06-17T03:59:55.775Z,80.71
2023-06-17T04:02:23.673Z,80.30
2023-06-17T04:04:53.600Z,80.71
2023-06-17T04:07:21.672Z,80.63
2023-06-17T04:10:05.365Z,80.41
2023-06-17T04:12:34.609Z,80.71
2023-06-17T04:15:04.168Z,80.40
2023-06-17T04:17:31.976Z,80.44
2023-06-17T04:20:06.356Z,80.11
2023-06-17T04:22:34.021Z,80.35
2023-06-17T04:25:01.560Z,80.92
2023-06-17T04:27:29.328Z,80.79
2023-06-17T04:29:57.339Z,81.11
2023-06-17T04:32:27.699Z,80.72
2023-06-17T04:34:55.519Z,80.76
2023-06-17T04:37:23.286Z,80.47
2023-06-17T04:39:54.072Z,80.63
2023-06-17T04:42:21.668Z,79.83
2023-06-17T04:44:50.405Z,79.57
2023-06-17T04:47:18.056Z,80.84
2023-06-17T04:49:48.401Z,80.50
2023-06-17T04:52:20.347Z,80.22
2023-06-17T04:54:48.722Z,80.07
2023-06-17T04:57:17.421Z,79.36
2023-06-17T04:59:45.508Z,79.59
2023-06-17T05:02:14.493Z,79.71
2023-06-17T05:04:42.587Z,79.81
2023-06-17T05:07:11.512Z,79.16
2023-06-17T05:09:41.164Z,79.15
2023-06-17T05:12:11.157Z,79.11
2023-06-17T05:14:38.880Z,79.56
2023-06-17T05:17:07.370Z,79.62
2023-06-17T05:19:35.200Z,79.12
2023-06-17T05:22:02.870Z,78.88
2023-06-17T05:24:33.177Z,79.19
2023-06-17T05:27:01.040Z,79.27
2023-06-17T05:29:29.437Z,78.94
2023-06-17T05:31:57.122Z,79.08
2023-06-17T05:34:24.652Z,79.08
2023-06-17T05:36:52.411Z,78.78
2023-06-17T05:39:20.049Z,79.03
2023-06-17T05:41:48.950Z,78.67
2023-06-17T05:44:19.196Z,78.82
2023-06-17T05:46:48.560Z,78.04
2023-06-17T05:49:16.860Z,77.80
2023-06-17T05:51:44.642Z,78.44
2023-06-17T05:54:12.261Z,78.25
2023-06-17T05:56:40.995Z,78.40
2023-06-17T05:59:09.997Z,77.98
2023-06-17T06:01:40.756Z,77.77
2023-06-17T06:04:08.549Z,77.30
2023-06-17T06:06:36.169Z,77.00
2023-06-17T06:09:03.843Z,76.65
2023-06-17T06:11:31.384Z,76.58
2023-06-17T06:13:59.844Z,76.79
2023-06-17T06:16:28.801Z,76.49
2023-06-17T06:18:56.350Z,75.97
2023-06-17T06:21:23.910Z,75.26
2023-06-17T06:23:52.188Z,75.27
2023-06-17T06:26:19.897Z,73.98
2023-06-17T06:28:49.057Z,73.92
2023-06-17T06:31:16.756Z,74.29
2023-06-17T06:33:45.642Z,73.92
2023-06-17T06:36:13.321Z,72.77
2023-06-17T06:38:40.879Z,72.96
2023-06-17T06:41:08.523Z,72.42
2023-06-17T06:43:41.634Z,72.77
2023-06-17T06:46:16.602Z,71.63
2023-06-17T06:48:45.983Z,70.36
2023-06-17T06:51:14.250Z,69.77
2023-06-17T06:53:42.050Z,69.55
2023-06-17T06:56:09.677Z,70.43
2023-06-17T06:58:39.397Z,70.58
2023-06-17T07:01:06.979Z,70.23
2023-06-17T07:03:35.024Z,69.87
2023-06-17T07:06:04.418Z,68.80
2023-06-17T07:08:32.328Z,68.93
2023-06-17T07:10:59.883Z,67.77
2023-06-17T07:13:28.003Z,67.58
2023-06-17T07:15:57.047Z,67.04
2023-06-17T07:18:24.870Z,67.38
2023-06-17T07:20:52.413Z,68.26
2023-06-17T07:23:21.850Z,66.21
2023-06-17T07:25:49.778Z,65.39
2023-06-17T07:28:18.094Z,65.36
2023-06-17T07:30:46.508Z,65.33
2023-06-17T07:33:14.067Z,63.77
2023-06-17T07:35:41.776Z,63.32
2023-06-17T07:38:09.353Z,62.94
2023-06-17T07:40:38.969Z,62.88
2023-06-17T07:43:06.639Z,62.13
2023-06-17T07:45:34.197Z,60.85
2023-06-17T07:48:02.021Z,60.55
2023-06-17T07:50:29.899Z,60.47
2023-06-17T07:52:58.223Z,59.81
2023-06-17T07:55:26.482Z,59.67
2023-06-17T07:57:56.629Z,59.17
2023-06-17T08:00:24.470Z,58.49
2023-06-17T08:02:52.232Z,56.25
2023-06-17T08:05:19.833Z,55.83
2023-06-17T08:07:47.368Z,56.29
2023-06-17T08:10:15.201Z,55.63
2023-06-17T08:12:43.647Z,54.83
2023-06-17T08:15:12.959Z,54.73
2023-06-17T08:17:41.773Z,54.07
2023-06-17T08:20:11.258Z,55.60
2023-06-17T08:22:38.999Z,55.06
2023-06-17T08:25:07.301Z,54.15
2023-06-17T08:27:34.893Z,53.91
2023-06-17T08:30:02.624Z,53.28
2023-06-17T08:32:31.655Z,52.60
2023-06-17T08:35:01.656Z,52.19
2023-06-17T08:37:29.151Z,51.04
2023-06-17T08:39:56.704Z,51.33
2023-06-17T08:42:24.271Z,52.33
2023-06-17T08:44:52.172Z,52.14
2023-06-17T08:47:19.997Z,50.73
2023-06-17T08:49:48.912Z,49.55
2023-06-17T08:52:16.873Z,49.39
2023-06-17T08:54:44.950Z,49.20
2023-06-17T08:57:14.287Z,50.07
2023-06-17T08:59:42.057Z,49.55
2023-06-17T09:02:11.594Z,48.98
2023-06-17T09:04:39.280Z,48.27
2023-06-17T09:07:10.335Z,47.60
2023-06-17T09:09:38.412Z,47.74
2023-06-17T09:12:07.254Z,47.36
2023-06-17T09:14:35.339Z,45.90
2023-06-17T09:17:04.118Z,44.41
2023-06-17T09:19:32.917Z,45.19
2023-06-17T09:22:08.174Z,43.94
2023-06-17T09:24:36.186Z,44.14
2023-06-17T09:27:04.236Z,43.29
2023-06-17T09:29:34.804Z,44.95
2023-06-17T09:32:05.094Z,44.85
2023-06-17T09:34:32.803Z,45.15
2023-06-17T09:37:02.384Z,44.48
2023-06-17T09:39:32.467Z,44.04
2023-06-17T09:42:08.559Z,43.44
2023-06-17T09:44:36.400Z,43.48
2023-06-17T09:47:09.213Z,43.01
2023-06-17T09:49:37.705Z,42.89
2023-06-17T09:52:09.381Z,43.24
2023-06-17T09:54:39.101Z,39.76
2023-06-17T09:57:08.589Z,38.80
2023-06-17T09:59:37.009Z,39.91
2023-06-17T10:02:04.978Z,37.94
2023-06-17T10:04:32.619Z,38.51
2023-06-17T10:07:01.535Z,37.77
2023-06-17T10:09:29.170Z,37.52
2023-06-17T10:11:59.730Z,38.42
2023-06-17T10:14:30.819Z,39.79
2023-06-17T10:16:58.900Z,39.06
2023-06-17T10:19:29.394Z,36.52
2023-06-17T10:21:57.974Z,37.11
2023-06-17T10:24:27.064Z,37.54
2023-06-17T10:26:55.056Z,37.89
2023-06-17T10:29:23.882Z,37.66
2023-06-17T10:31:52.162Z,38.03
2023-06-17T10:34:23.343Z,35.25
2023-06-17T10:36:52.471Z,35.74
2023-06-17T10:39:20.210Z,34.28
2023-06-17T10:41:57.194Z,33.89
2023-06-17T10:44:44.554Z,34.97
2023-06-17T10:47:21.897Z,34.45
2023-06-17T10:49:50.841Z,33.59
2023-06-17T10:52:18.834Z,33.51
2023-06-17T10:54:47.861Z,33.27
2023-06-17T10:57:16.136Z,33.72
2023-06-17T10:59:45.059Z,31.87
2023-06-17T11:02:13.065Z,31.63
2023-06-17T11:04:42.411Z,32.04
2023-06-17T11:07:10.249Z,33.25
2023-06-17T11:09:38.459Z,31.99
2023-06-17T11:12:07.287Z,33.07
2023-06-17T11:14:36.120Z,32.48
2023-06-17T11:17:05.358Z,32.30
2023-06-17T11:19:32.961Z,31.45
2023-06-17T11:22:04.515Z,31.23
2023-06-17T11:24:32.923Z,31.61
2023-06-17T11:27:01.069Z,31.33
2023-06-17T11:29:30.106Z,30.41
2023-06-17T11:32:00.109Z,30.42
2023-06-17T11:34:32.752Z,28.79
2023-06-17T11:37:01.592Z,29.23
2023-06-17T11:39:30.299Z,29.01
2023-06-17T11:42:02.204Z,27.64
2023-06-17T11:44:30.188Z,29.51
2023-06-17T11:46:58.251Z,28.83
2023-06-17T11:49:26.535Z,28.85
2023-06-17T11:51:55.446Z,29.39
2023-06-17T11:54:27.529Z,30.42
2023-06-17T11:56:55.974Z,30.91
2023-06-17T11:59:24.003Z,30.51
2023-06-17T12:01:53.086Z,30.71
2023-06-17T12:04:20.795Z,30.19
2023-06-17T12:06:48.955Z,29.59
2023-06-17T12:09:17.898Z,29.58
2023-06-17T12:11:45.945Z,30.05
2023-06-17T12:14:14.459Z,29.55
2023-06-17T12:16:44.181Z,30.07
2023-06-17T12:19:16.699Z,30.65
2023-06-17T12:21:44.300Z,30.36
2023-06-17T12:24:11.857Z,29.96
2023-06-17T12:26:40.739Z,30.41
2023-06-17T12:29:20.419Z,30.33
2023-06-17T12:31:52.698Z,29.75
2023-06-17T12:34:20.260Z,29.35
2023-06-17T12:36:48.388Z,29.20
2023-06-17T12:39:15.920Z,29.15
2023-06-17T12:41:45.142Z,28.40
2023-06-17T12:44:12.728Z,27.89
2023-06-17T12:46:42.202Z,28.92
2023-06-17T12:49:09.964Z,29.21
2023-06-17T12:51:37.550Z,28.43
2023-06-17T12:54:06.135Z,28.02
2023-06-17T12:56:33.853Z,28.12
2023-06-17T12:59:05.646Z,28.21
2023-06-17T13:01:33.220Z,29.26
2023-06-17T13:04:00.955Z,29.53
2023-06-17T13:06:28.520Z,29.18
2023-06-17T13:08:56.237Z,29.26
2023-06-17T13:11:23.769Z,30.25
2023-06-17T13:13:51.396Z,29.84
2023-06-17T13:16:20.393Z,29.16
2023-06-17T13:18:48.752Z,28.56
2023-06-17T13:21:16.380Z,28.19
2023-06-17T13:23:44.014Z,28.06
2023-06-17T13:26:11.856Z,28.89
2023-06-17T13:28:39.788Z,28.97
2023-06-17T13:31:07.864Z,28.89
2023-06-17T13:33:37.735Z,28.35
2023-06-17T13:36:05.418Z,29.29
2023-06-17T13:38:33.009Z,29.16
2023-06-17T13:41:00.576Z,28.80
2023-06-17T13:43:28.490Z,28.45
2023-06-17T13:45:56.120Z,29.23
2023-06-17T13:48:23.782Z,29.60
2023-06-17T13:50:52.631Z,29.12
2023-06-17T13:53:20.171Z,28.81
2023-06-17T13:55:47.772Z,29.03
2023-06-17T13:58:15.592Z,28.52
2023-06-17T14:00:43.137Z,28.85
2023-06-17T14:03:12.573Z,28.98
2023-06-17T14:05:42.462Z,28.26
2023-06-17T14:08:11.381Z,27.97
2023-06-17T14:10:39.004Z,28.61
2023-06-17T14:13:06.568Z,28.81
2023-06-17T14:15:34.186Z,28.73
2023-06-17T14:18:01.817Z,28.76
2023-06-17T14:20:29.393Z,28.76
2023-06-17T14:22:58.609Z,28.70
2023-06-17T14:25:27.824Z,29.58
2023-06-17T14:27:55.513Z,29.68
2023-06-17T14:30:23.429Z,30.19
2023-06-17T14:32:51.226Z,29.90
2023-06-17T14:35:20.340Z,29.83
2023-06-17T14:37:50.004Z,29.48
2023-06-17T14:40:18.534Z,29.24
2023-06-17T14:42:47.711Z,30.03
2023-06-17T14:45:17.052Z,30.00
2023-06-17T14:47:45.556Z,29.79
2023-06-17T14:50:13.384Z,29.67
2023-06-17T14:52:42.371Z,29.69
2023-06-17T14:55:10.557Z,29.25
2023-06-17T14:57:38.167Z,29.11
2023-06-17T15:00:09.167Z,28.63
2023-06-17T15:02:48.916Z,28.84
2023-06-17T15:05:18.089Z,29.25
2023-06-17T15:07:45.635Z,28.67
2023-06-17T15:10:13.231Z,29.20
2023-06-17T15:12:43.021Z,29.22
2023-06-17T15:15:13.287Z,28.97
2023-06-17T15:17:42.534Z,29.24
2023-06-17T15:20:11.526Z,28.81
2023-06-17T15:22:39.325Z,28.92
2023-06-17T15:25:08.071Z,29.00
2023-06-17T15:27:36.611Z,28.29
2023-06-17T15:30:04.843Z,27.99
2023-06-17T15:32:33.735Z,28.00
2023-06-17T15:35:01.332Z,28.24
2023-06-17T15:37:30.370Z,28.47
2023-06-17T15:39:58.000Z,28.64
2023-06-17T15:42:25.821Z,29.17
2023-06-17T15:44:53.358Z,28.51
2023-06-17T15:47:20.979Z,28.00
2023-06-17T15:49:50.488Z,27.84
2023-06-17T15:52:18.028Z,28.14
2023-06-17T15:54:45.560Z,28.11
2023-06-17T15:57:14.770Z,28.20
2023-06-17T15:59:42.551Z,28.04
2023-06-17T16:02:10.286Z,27.76
2023-06-17T16:04:38.233Z,27.70
2023-06-17T16:07:08.692Z,28.64
2023-06-17T16:09:38.031Z,28.34
2023-06-17T16:12:06.663Z,29.63
2023-06-17T16:14:36.269Z,31.16
2023-06-17T16:17:06.193Z,31.19
2023-06-17T16:19:34.133Z,31.67
2023-06-17T16:22:03.245Z,32.38
2023-06-17T16:24:32.609Z,32.14
2023-06-17T16:27:00.789Z,33.27
2023-06-17T16:29:28.387Z,33.40
2023-06-17T16:31:56.099Z,34.15
2023-06-17T16:34:23.775Z,34.21
2023-06-17T16:36:51.410Z,35.06
2023-06-17T16:39:18.948Z,34.91
2023-06-17T16:41:47.881Z,34.79
2023-06-17T16:44:15.708Z,34.87
2023-06-17T16:46:43.296Z,35.43
2023-06-17T16:49:10.864Z,35.52
2023-06-17T16:51:38.607Z,35.27
2023-06-17T16:54:06.741Z,35.44
2023-06-17T16:56:34.437Z,35.90
2023-06-17T16:59:03.900Z,35.52
2023-06-17T17:01:31.510Z,35.77
2023-06-17T17:04:00.904Z,36.17
2023-06-17T17:06:28.515Z,36.50
2023-06-17T17:08:56.093Z,35.79
2023-06-17T17:11:23.655Z,36.15
2023-06-17T17:13:51.673Z,36.52
2023-06-17T17:16:20.677Z,35.87
2023-06-17T17:18:48.401Z,36.48
2023-06-17T17:21:15.948Z,36.68
2023-06-17T17:23:43.476Z,36.55
2023-06-17T17:26:13.194Z,36.59
2023-06-17T17:28:40.931Z,37.22
2023-06-17T17:31:08.515Z,37.12
2023-06-17T17:33:37.444Z,36.91
2023-06-17T17:36:05.375Z,37.41
2023-06-17T17:38:33.120Z,37.86
2023-06-17T17:41:00.723Z,37.80
2023-06-17T17:43:30.668Z,38.04
2023-06-17T17:45:59.019Z,38.12
2023-06-17T17:48:26.631Z,37.95
2023-06-17T17:50:55.537Z,37.81
2023-06-17T17:53:23.203Z,37.99
2023-06-17T17:55:50.872Z,37.75
2023-06-17T17:58:18.701Z,38.13
2023-06-17T18:00:46.519Z,38.07
2023-06-17T18:03:15.590Z,38.56
2023-06-17T18:05:43.333Z,38.29
2023-06-17T18:08:12.210Z,38.43
2023-06-17T18:10:39.775Z,38.71
2023-06-17T18:13:07.331Z,38.78
2023-06-17T18:15:34.820Z,38.86
2023-06-17T18:18:02.376Z,39.10
2023-06-17T18:20:29.942Z,39.14
2023-06-17T18:22:57.530Z,39.38
2023-06-17T18:25:26.444Z,39.29
2023-06-17T18:27:54.029Z,39.77
2023-06-17T18:30:21.843Z,39.81
2023-06-17T18:32:49.684Z,39.80
2023-06-17T18:35:17.550Z,39.98
2023-06-17T18:37:45.114Z,40.37
2023-06-17T18:40:13.750Z,40.05
2023-06-17T18:42:42.609Z,40.39
2023-06-17T18:45:10.851Z,40.47
2023-06-17T18:47:38.497Z,40.47
2023-06-17T18:50:07.328Z,40.65
2023-06-17T18:52:34.941Z,41.15
2023-06-17T18:55:02.487Z,41.33
2023-06-17T18:57:30.619Z,41.00
2023-06-17T18:59:59.506Z,41.25
2023-06-17T19:02:28.016Z,41.27
2023-06-17T19:04:56.883Z,40.94
2023-06-17T19:07:25.459Z,41.36
2023-06-17T19:09:53.116Z,41.82
2023-06-17T19:12:20.808Z,41.80
2023-06-17T19:14:48.354Z,41.78
2023-06-17T19:17:17.437Z,41.82
2023-06-17T19:19:45.027Z,41.85
2023-06-17T19:22:13.574Z,43.12
2023-06-17T19:24:41.172Z,43.52
2023-06-17T19:27:08.764Z,43.56
2023-06-17T19:29:36.597Z,44.15
2023-06-17T19:32:04.397Z,44.66
2023-06-17T19:34:33.292Z,44.64
2023-06-17T19:37:00.894Z,45.33
2023-06-17T19:39:28.447Z,45.21
2023-06-17T19:41:56.092Z,45.78
2023-06-17T19:44:23.624Z,45.95
2023-06-17T19:46:51.181Z,45.70
2023-06-17T19:49:18.711Z,46.32
2023-06-17T19:51:48.779Z,46.76
2023-06-17T19:54:16.503Z,47.24
2023-06-17T19:56:44.202Z,48.38
2023-06-17T19:59:11.750Z,48.67
2023-06-17T20:01:39.696Z,48.23
2023-06-17T20:04:07.326Z,48.18
2023-06-17T20:06:34.880Z,49.61
2023-06-17T20:09:03.781Z,48.93
2023-06-17T20:11:31.384Z,50.00
2023-06-17T20:13:59.013Z,50.22
2023-06-17T20:16:27.082Z,51.88
2023-06-17T20:18:54.866Z,51.39
2023-06-17T20:21:22.598Z,52.33
2023-06-17T20:23:50.121Z,51.38
2023-06-17T20:26:19.033Z,50.98
2023-06-17T20:28:46.579Z,51.30
2023-06-17T20:31:14.433Z,52.72
2023-06-17T20:33:42.044Z,53.06
2023-06-17T20:36:09.582Z,52.58
2023-06-17T20:38:37.088Z,52.68
2023-06-17T20:41:04.658Z,54.31
2023-06-17T20:43:34.351Z,55.98
2023-06-17T20:46:02.737Z,55.22
2023-06-17T20:48:31.293Z,54.77
2023-06-17T20:50:58.805Z,56.57
2023-06-17T20:53:26.509Z,57.00
2023-06-17T20:55:54.032Z,55.76
2023-06-17T20:58:21.560Z,57.04
2023-06-17T21:00:50.526Z,56.05
2023-06-17T21:03:18.191Z,56.51
2023-06-17T21:05:45.734Z,56.53
2023-06-17T21:08:13.338Z,57.03
2023-06-17T21:10:41.091Z,56.17
2023-06-17T21:13:08.703Z,56.32
2023-06-17T21:15:36.469Z,56.72
2023-06-17T21:18:05.454Z,56.82
2023-06-17T21:20:33.249Z,57.88
2023-06-17T21:23:01.558Z,57.85
2023-06-17T21:25:29.129Z,57.39
2023-06-17T21:27:56.710Z,58.41
2023-06-17T21:30:24.459Z,58.09
2023-06-17T21:32:52.258Z,57.94
2023-06-17T21:35:21.153Z,57.89
2023-06-17T21:37:48.798Z,58.02
2023-06-17T21:40:16.371Z,58.04
2023-06-17T21:42:43.922Z,57.81
2023-06-17T21:45:11.822Z,59.96
2023-06-17T21:47:39.431Z,59.62
2023-06-17T21:50:09.370Z,60.23
2023-06-17T21:52:38.315Z,58.74
2023-06-17T21:55:06.898Z,59.34
2023-06-17T21:57:34.543Z,59.47
2023-06-17T22:00:02.062Z,59.29
2023-06-17T22:02:39.996Z,59.12
2023-06-17T22:05:07.851Z,59.83
2023-06-17T22:07:35.483Z,59.56
2023-06-17T22:10:04.766Z,59.36
2023-06-17T22:12:32.438Z,59.59
2023-06-17T22:15:01.988Z,60.38
2023-06-17T22:17:31.452Z,61.17
2023-06-17T22:19:59.039Z,60.75
2023-06-17T22:22:26.585Z,60.97
2023-06-17T22:24:54.156Z,61.72
2023-06-17T22:27:23.045Z,62.66
2023-06-17T22:29:50.622Z,63.22
2023-06-17T22:32:18.157Z,63.33
2023-06-17T22:34:45.813Z,62.16
2023-06-17T22:37:13.346Z,62.24
2023-06-17T22:39:40.953Z,62.60
2023-06-17T22:42:08.856Z,63.20
2023-06-17T22:44:37.724Z,63.97
2023-06-17T22:47:06.050Z,64.69
2023-06-17T22:49:33.702Z,62.31
2023-06-17T22:52:01.258Z,61.71
2023-06-17T22:54:28.820Z,61.72
2023-06-17T22:56:56.525Z,61.13
2023-06-17T22:59:24.416Z,61.02
2023-06-17T23:01:53.319Z,61.79
2023-06-17T23:04:20.863Z,61.52
2023-06-17T23:06:48.375Z,61.42
2023-06-17T23:09:16.470Z,62.60
2023-06-17T23:11:44.055Z,62.09
2023-06-17T23:14:11.637Z,62.19
2023-06-17T23:16:39.227Z,63.45
2023-06-17T23:19:08.097Z,63.91
2023-06-17T23:21:37.936Z,63.57
2023-06-17T23:24:06.123Z,64.37
2023-06-17T23:26:34.931Z,67.24
2023-06-17T23:29:02.838Z,65.83
2023-06-17T23:31:30.572Z,64.69
2023-06-17T23:33:58.099Z,64.56
2023-06-17T23:36:27.153Z,64.86
2023-06-17T23:38:55.153Z,64.87
2023-06-17T23:41:22.706Z,65.33
2023-06-17T23:43:50.397Z,64.62
2023-06-17T23:46:18.772Z,65.51
2023-06-17T23:48:46.371Z,65.97
2023-06-17T23:51:14.005Z,68.23
2023-06-17T23:53:42.880Z,67.55
2023-06-17T23:56:10.397Z,67.29
2023-06-17T23:58:37.972Z,66.59
